createdAt,value
2022-11-29T00:00:59.804Z,54.56
2022-11-29T00:03:27.769Z,54.42
2022-11-29T00:05:55.620Z,54.45
2022-11-29T00:08:23.194Z,54.52
2022-11-29T00:10:50.121Z,54.45
2022-11-29T00:13:17.987Z,54.50
2022-11-29T00:15:44.759Z,54.36
2022-11-29T00:18:11.434Z,54.23
2022-11-29T00:20:39.763Z,54.59
2022-11-29T00:23:06.656Z,54.42
2022-11-29T00:25:33.416Z,54.46
2022-11-29T00:28:00.141Z,54.42
2022-11-29T00:30:28.099Z,54.53
2022-11-29T00:32:54.951Z,54.17
2022-11-29T00:35:21.757Z,54.54
2022-11-29T00:37:48.419Z,54.21
2022-11-29T00:40:16.507Z,54.61
2022-11-29T00:42:43.197Z,54.54
2022-11-29T00:45:10.447Z,54.12
2022-11-29T00:47:37.144Z,54.28
2022-11-29T00:50:05.239Z,54.55
2022-11-29T00:52:31.976Z,54.05
2022-11-29T00:54:58.656Z,54.13
2022-11-29T00:57:25.492Z,54.39
2022-11-29T00:59:52.117Z,54.10
2022-11-29T01:02:18.887Z,54.20
2022-11-29T01:04:45.746Z,53.95
2022-11-29T01:07:12.678Z,54.47
2022-11-29T01:09:39.450Z,53.97
2022-11-29T01:12:06.474Z,54.00
2022-11-29T01:14:33.265Z,54.36
2022-11-29T01:17:00.211Z,53.97
2022-11-29T01:19:26.975Z,54.26
2022-11-29T01:21:53.742Z,54.22
2022-11-29T01:24:22.307Z,54.34
2022-11-29T01:26:49.073Z,53.91
2022-11-29T01:29:15.757Z,54.13
2022-11-29T01:31:42.547Z,54.34
2022-11-29T01:34:10.603Z,53.88
2022-11-29T01:36:37.364Z,53.92
2022-11-29T01:39:05.169Z,53.96
2022-11-29T01:41:33.679Z,53.76
2022-11-29T01:44:11.858Z,54.00
2022-11-29T01:46:41.384Z,53.75
2022-11-29T01:49:17.175Z,54.13
2022-11-29T01:51:49.810Z,53.80
2022-11-29T01:54:16.758Z,54.08
2022-11-29T01:56:44.950Z,54.12
2022-11-29T01:59:15.065Z,53.87
2022-11-29T02:01:42.212Z,54.12
2022-11-29T02:04:09.158Z,54.05
2022-11-29T02:06:38.978Z,54.17
2022-11-29T02:09:05.695Z,53.75
2022-11-29T02:11:41.140Z,54.02
2022-11-29T02:14:30.839Z,54.05
2022-11-29T02:17:07.050Z,53.74
2022-11-29T02:19:53.910Z,54.02
2022-11-29T02:22:22.528Z,53.79
2022-11-29T02:25:03.824Z,54.23
2022-11-29T02:27:33.759Z,53.72
2022-11-29T02:30:16.890Z,54.15
2022-11-29T02:32:46.365Z,53.72
2022-11-29T02:35:52.810Z,54.28
2022-11-29T02:38:25.469Z,53.69
2022-11-29T02:41:10.317Z,53.83
2022-11-29T02:43:42.877Z,53.91
2022-11-29T02:46:17.823Z,54.06
2022-11-29T02:49:18.720Z,53.93
2022-11-29T02:51:45.320Z,53.79
2022-11-29T02:54:21.121Z,53.55
2022-11-29T02:56:59.173Z,54.20
2022-11-29T03:00:01.974Z,53.88
2022-11-29T03:02:36.636Z,54.21
2022-11-29T03:05:35.435Z,54.09
2022-11-29T03:08:11.481Z,54.18
2022-11-29T03:11:07.327Z,54.31
2022-11-29T03:13:34.057Z,54.17
2022-11-29T03:16:15.541Z,54.26
2022-11-29T03:19:12.354Z,53.88
2022-11-29T03:21:39.014Z,53.87
2022-11-29T03:24:12.082Z,54.12
2022-11-29T03:26:46.130Z,54.16
2022-11-29T03:29:27.332Z,53.87
2022-11-29T03:32:17.665Z,53.92
2022-11-29T03:34:54.306Z,53.85
2022-11-29T03:37:44.120Z,53.82
2022-11-29T03:40:13.957Z,53.90
2022-11-29T03:42:55.048Z,54.14
2022-11-29T03:45:30.164Z,54.19
2022-11-29T03:48:02.535Z,54.14
2022-11-29T03:50:36.146Z,54.13
2022-11-29T03:53:12.889Z,54.33
2022-11-29T03:55:55.065Z,53.99
2022-11-29T03:58:57.174Z,53.95
2022-11-29T04:01:35.743Z,54.27
2022-11-29T04:04:36.594Z,54.08
2022-11-29T04:07:26.506Z,53.91
2022-11-29T04:10:04.318Z,54.01
2022-11-29T04:12:49.174Z,54.12
2022-11-29T04:15:39.578Z,54.22
2022-11-29T04:18:16.008Z,54.14
2022-11-29T04:21:15.918Z,54.08
2022-11-29T04:24:28.878Z,54.39
2022-11-29T04:27:33.581Z,54.34
2022-11-29T04:30:04.984Z,53.90
2022-11-29T04:33:16.765Z,54.21
2022-11-29T04:36:15.705Z,53.93
2022-11-29T04:38:45.336Z,53.95
2022-11-29T04:41:30.250Z,54.17
2022-11-29T04:44:12.327Z,54.35
2022-11-29T04:46:50.964Z,54.51
2022-11-29T04:50:05.515Z,54.64
2022-11-29T05:13:11.958Z,54.14
2022-11-29T05:16:06.495Z,54.21
2022-11-29T05:18:42.379Z,54.27
2022-11-29T05:21:15.585Z,54.21
2022-11-29T05:24:10.041Z,54.25
2022-11-29T05:27:01.072Z,54.51
2022-11-29T05:29:37.073Z,54.15
2022-11-29T05:32:25.533Z,54.15
2022-11-29T05:35:13.926Z,54.54
2022-11-29T05:37:49.585Z,54.47
2022-11-29T05:40:38.094Z,54.47
2022-11-29T05:43:35.434Z,54.10
2022-11-29T05:46:13.916Z,54.04
2022-11-29T05:48:57.278Z,54.32
2022-11-29T05:51:45.001Z,54.43
2022-11-29T05:54:37.571Z,54.22
2022-11-29T05:57:42.872Z,54.13
2022-11-29T06:00:12.238Z,54.18
2022-11-29T06:03:36.565Z,54.43
2022-11-29T06:06:10.300Z,54.34
2022-11-29T06:08:44.977Z,54.17
2022-11-29T06:11:24.610Z,54.48
2022-11-29T06:14:20.077Z,54.28
2022-11-29T06:16:56.950Z,54.61
2022-11-29T06:19:53.169Z,54.59
2022-11-29T06:22:22.533Z,54.23
2022-11-29T06:25:26.125Z,54.66
2022-11-29T06:28:13.426Z,54.71
2022-11-29T06:30:40.157Z,54.29
2022-11-29T06:33:23.093Z,54.34
2022-11-29T06:36:16.043Z,54.42
2022-11-29T06:38:44.203Z,54.15
2022-11-29T06:41:17.149Z,54.48
2022-11-29T06:43:44.525Z,54.45
2022-11-29T06:46:23.342Z,54.21
2022-11-29T06:49:02.377Z,54.56
2022-11-29T06:51:55.609Z,54.34
2022-11-29T06:54:28.422Z,54.79
2022-11-29T06:57:01.892Z,54.99
2022-11-29T06:59:39.254Z,55.05
2022-11-29T07:02:37.655Z,54.78
2022-11-29T07:05:33.473Z,55.04
2022-11-29T07:08:06.078Z,55.19
2022-11-29T07:10:37.793Z,55.68
2022-11-29T07:13:05.240Z,55.67
2022-11-29T07:15:32.380Z,55.66
2022-11-29T07:17:59.023Z,56.02
2022-11-29T07:20:48.669Z,55.86
2022-11-29T07:23:24.589Z,55.93
2022-11-29T07:26:00.518Z,55.73
2022-11-29T07:28:48.917Z,56.00
2022-11-29T07:31:29.381Z,55.69
2022-11-29T07:34:15.781Z,55.95
2022-11-29T07:37:14.145Z,55.63
2022-11-29T07:40:01.552Z,55.80
2022-11-29T07:42:28.209Z,55.80
2022-11-29T07:45:04.010Z,55.94
2022-11-29T07:47:35.592Z,55.63
2022-11-29T07:50:02.954Z,55.55
2022-11-29T07:52:29.630Z,55.43
2022-11-29T07:54:56.515Z,55.89
2022-11-29T07:57:23.241Z,55.97
2022-11-29T07:59:49.977Z,56.08
2022-11-29T08:02:27.529Z,55.87
2022-11-29T08:04:54.277Z,55.75
2022-11-29T08:07:21.435Z,55.89
2022-11-29T08:09:48.341Z,55.66
2022-11-29T08:12:15.545Z,55.54
2022-11-29T08:14:42.533Z,55.74
2022-11-29T08:17:09.624Z,55.73
2022-11-29T08:19:36.563Z,55.78
2022-11-29T08:22:03.655Z,55.82
2022-11-29T08:24:30.452Z,55.82
2022-11-29T08:26:57.104Z,55.81
2022-11-29T08:29:24.001Z,55.60
2022-11-29T08:31:53.616Z,55.66
2022-11-29T08:34:22.004Z,55.64
2022-11-29T08:36:49.371Z,55.26
2022-11-29T08:39:19.222Z,55.24
2022-11-29T08:41:49.878Z,55.16
2022-11-29T08:44:17.255Z,55.49
2022-11-29T08:47:02.455Z,55.22
2022-11-29T08:49:29.279Z,55.22
2022-11-29T08:52:15.895Z,55.34
2022-11-29T08:54:43.028Z,55.40
2022-11-29T08:57:38.584Z,55.44
2022-11-29T08:59:56.841Z,55.50
2022-11-29T09:02:23.513Z,55.51
2022-11-29T09:04:50.262Z,55.36
2022-11-29T09:07:17.038Z,55.45
2022-11-29T09:09:43.993Z,55.41
2022-11-29T09:12:10.675Z,55.26
2022-11-29T09:14:37.483Z,55.41
2022-11-29T09:17:04.206Z,55.40
2022-11-29T09:19:30.981Z,55.63
2022-11-29T09:21:57.681Z,55.52
2022-11-29T09:24:24.426Z,55.29
2022-11-29T09:26:51.194Z,55.95
2022-11-29T09:29:18.148Z,55.33
2022-11-29T09:31:47.806Z,55.71
2022-11-29T09:34:15.896Z,55.89
2022-11-29T09:36:45.980Z,56.16
2022-11-29T09:39:12.770Z,56.07
2022-11-29T09:41:54.568Z,56.00
2022-11-29T09:44:43.435Z,55.40
2022-11-29T09:47:33.094Z,55.35
2022-11-29T09:50:11.976Z,55.77
2022-11-29T09:53:06.910Z,55.40
2022-11-29T09:55:48.099Z,55.33
2022-11-29T09:58:23.431Z,55.17
2022-11-29T10:00:53.179Z,55.57
2022-11-29T10:03:44.751Z,55.33
2022-11-29T10:06:26.779Z,55.42
2022-11-29T10:09:08.309Z,55.37
2022-11-29T10:12:00.155Z,55.24
2022-11-29T10:14:34.001Z,55.53
2022-11-29T10:17:05.953Z,55.47
2022-11-29T10:19:54.311Z,55.40
2022-11-29T10:22:41.494Z,55.57
2022-11-29T10:25:10.655Z,54.88
2022-11-29T10:27:40.150Z,54.78
2022-11-29T10:30:13.542Z,54.88
2022-11-29T10:32:40.507Z,55.18
2022-11-29T10:35:13.590Z,55.23
2022-11-29T10:37:40.433Z,54.84
2022-11-29T10:40:16.038Z,55.01
2022-11-29T10:42:48.784Z,54.62
2022-11-29T10:45:26.086Z,54.80
2022-11-29T10:47:58.566Z,54.76
2022-11-29T10:50:27.656Z,54.64
2022-11-29T10:53:00.216Z,54.75
2022-11-29T10:55:28.079Z,54.99
2022-11-29T10:58:24.830Z,54.91
2022-11-29T11:00:57.686Z,54.63
2022-11-29T11:03:25.850Z,54.97
2022-11-29T11:06:00.453Z,55.06
2022-11-29T11:08:27.782Z,54.46
2022-11-29T11:11:01.161Z,54.60
2022-11-29T11:13:30.988Z,54.84
2022-11-29T11:16:14.205Z,54.65
2022-11-29T11:18:41.080Z,54.65
2022-11-29T11:21:10.549Z,55.10
2022-11-29T11:23:43.109Z,55.65
2022-11-29T11:26:14.068Z,55.37
2022-11-29T11:28:46.954Z,55.63
2022-11-29T11:31:14.027Z,55.69
2022-11-29T11:33:42.591Z,55.70
2022-11-29T11:36:35.723Z,56.00
2022-11-29T11:39:13.556Z,56.20
2022-11-29T11:42:02.501Z,55.81
2022-11-29T11:44:48.453Z,56.05
2022-11-29T11:47:20.274Z,55.76
2022-11-29T11:49:49.098Z,55.92
2022-11-29T11:52:26.165Z,55.52
2022-11-29T11:55:01.113Z,55.82
2022-11-29T11:57:28.871Z,55.54
2022-11-29T12:00:00.718Z,55.99
2022-11-29T12:02:40.632Z,55.92
2022-11-29T12:05:14.314Z,55.87
2022-11-29T12:08:07.501Z,55.84
2022-11-29T12:10:34.967Z,55.73
2022-11-29T12:13:02.417Z,55.95
2022-11-29T12:15:41.812Z,55.97
2022-11-29T12:18:14.827Z,55.94
2022-11-29T12:21:00.289Z,55.54
2022-11-29T12:23:52.798Z,55.76
2022-11-29T12:26:55.373Z,55.72
2022-11-29T12:29:19.909Z,55.39
2022-11-29T12:31:49.586Z,55.76
2022-11-29T12:34:47.088Z,55.85
2022-11-29T12:37:35.721Z,55.46
2022-11-29T12:40:09.449Z,55.56
2022-11-29T12:42:54.249Z,55.59
2022-11-29T12:45:30.397Z,55.68
2022-11-29T12:47:57.097Z,55.62
2022-11-29T12:50:37.169Z,55.95
2022-11-29T12:53:27.044Z,55.66
2022-11-29T12:56:05.478Z,56.00
2022-11-29T12:58:45.649Z,56.14
2022-11-29T13:01:36.075Z,56.36
2022-11-29T13:04:32.408Z,56.58
2022-11-29T13:07:10.988Z,56.99
2022-11-29T13:10:17.672Z,56.71
2022-11-29T13:12:52.791Z,56.51
2022-11-29T13:15:29.734Z,56.72
2022-11-29T13:18:09.674Z,56.71
2022-11-29T13:20:41.663Z,56.31
2022-11-29T13:23:46.092Z,56.35
2022-11-29T13:26:15.101Z,55.99
2022-11-29T13:28:43.069Z,55.79
2022-11-29T13:31:14.987Z,55.85
2022-11-29T13:34:07.694Z,56.13
2022-11-29T13:36:55.604Z,56.48
2022-11-29T13:39:34.138Z,56.61
2022-11-29T13:42:38.094Z,56.61
2022-11-29T13:45:34.020Z,56.33
2022-11-29T13:48:02.305Z,56.57
2022-11-29T13:50:42.472Z,56.55
2022-11-29T13:53:21.573Z,56.56
2022-11-29T13:56:01.799Z,57.05
2022-11-29T13:58:28.635Z,57.15
2022-11-29T14:01:15.741Z,57.06
2022-11-29T14:03:48.157Z,56.80
2022-11-29T14:06:21.154Z,57.10
2022-11-29T14:11:52.773Z,57.21
2022-11-29T14:14:25.175Z,57.11
2022-11-29T14:16:59.406Z,56.90
2022-11-29T14:19:36.478Z,56.81
2022-11-29T14:22:03.317Z,56.72
2022-11-29T14:24:35.911Z,56.69
2022-11-29T14:27:14.289Z,56.66
2022-11-29T14:29:53.934Z,56.59
2022-11-29T14:33:00.895Z,56.57
2022-11-29T14:35:27.622Z,56.85
2022-11-29T14:38:03.598Z,56.99
2022-11-29T14:40:44.851Z,56.89
2022-11-29T14:43:33.466Z,56.73
2022-11-29T14:46:15.769Z,56.57
2022-11-29T14:48:57.964Z,56.65
2022-11-29T14:51:27.070Z,56.71
2022-11-29T14:54:16.228Z,56.77
2022-11-29T14:56:45.500Z,56.29
2022-11-29T14:59:42.775Z,56.56
2022-11-29T15:02:27.079Z,56.34
2022-11-29T15:04:56.154Z,56.55
2022-11-29T15:07:32.872Z,56.68
2022-11-29T15:10:01.997Z,56.61
2022-11-29T15:12:38.171Z,56.82
2022-11-29T15:15:20.262Z,56.34
2022-11-29T15:18:05.210Z,56.73
2022-11-29T15:20:45.757Z,56.76
2022-11-29T15:23:18.474Z,56.61
2022-11-29T15:25:53.817Z,56.85
2022-11-29T15:28:26.121Z,56.93
2022-11-29T15:31:02.024Z,56.83
2022-11-29T15:33:29.337Z,56.82
2022-11-29T15:36:04.400Z,56.62
2022-11-29T15:38:41.946Z,56.70
2022-11-29T15:41:20.669Z,56.80
2022-11-29T15:43:52.475Z,56.92
2022-11-29T15:46:21.292Z,57.42
2022-11-29T15:48:48.062Z,57.24
2022-11-29T15:51:28.817Z,57.00
2022-11-29T15:54:12.091Z,57.04
2022-11-29T15:56:48.126Z,57.55
2022-11-29T15:59:21.067Z,57.28
2022-11-29T16:01:50.351Z,57.58
2022-11-29T16:04:19.201Z,57.79
2022-11-29T16:06:46.659Z,57.66
2022-11-29T16:09:17.972Z,58.01
2022-11-29T16:11:45.885Z,58.09
2022-11-29T16:14:22.740Z,57.91
2022-11-29T16:16:52.628Z,57.89
2022-11-29T16:19:31.222Z,57.50
2022-11-29T16:22:02.776Z,57.24
2022-11-29T16:24:29.633Z,57.18
2022-11-29T16:26:56.338Z,57.58
2022-11-29T16:29:38.653Z,57.76
2022-11-29T16:32:17.617Z,57.90
2022-11-29T16:34:44.933Z,57.88
2022-11-29T16:37:21.655Z,57.82
2022-11-29T16:39:51.210Z,57.79
2022-11-29T16:42:25.728Z,57.56
2022-11-29T16:45:27.850Z,57.78
2022-11-29T16:47:59.475Z,57.76
2022-11-29T16:50:28.173Z,57.36
2022-11-29T16:52:56.752Z,57.57
2022-11-29T16:55:24.122Z,57.35
2022-11-29T16:57:52.109Z,57.58
2022-11-29T17:00:33.465Z,57.73
2022-11-29T17:03:00.454Z,57.28
2022-11-29T17:05:27.512Z,57.21
2022-11-29T17:07:54.542Z,57.60
2022-11-29T17:10:24.510Z,57.36
2022-11-29T17:12:51.313Z,57.37
2022-11-29T17:15:18.101Z,57.08
2022-11-29T17:17:46.126Z,57.29
2022-11-29T17:20:13.388Z,57.27
2022-11-29T17:22:40.583Z,57.18
2022-11-29T17:25:07.733Z,57.24
2022-11-29T17:27:35.494Z,57.08
2022-11-29T17:30:03.480Z,56.85
2022-11-29T17:32:30.193Z,57.18
2022-11-29T17:34:56.879Z,57.12
2022-11-29T17:37:23.547Z,56.84
2022-11-29T17:39:50.277Z,56.83
2022-11-29T17:42:17.053Z,56.87
2022-11-29T17:44:43.869Z,56.60
2022-11-29T17:47:10.601Z,56.93
2022-11-29T17:49:37.392Z,56.93
2022-11-29T17:52:04.257Z,56.86
2022-11-29T17:54:33.135Z,56.57
2022-11-29T17:57:00.797Z,56.58
2022-11-29T17:59:27.690Z,56.59
2022-11-29T18:01:54.501Z,56.56
2022-11-29T18:04:21.558Z,56.55
2022-11-29T18:06:50.388Z,56.31
2022-11-29T18:09:18.116Z,56.62
2022-11-29T18:11:48.579Z,56.78
2022-11-29T18:14:22.992Z,56.30
2022-11-29T18:16:50.313Z,56.50
2022-11-29T18:19:18.994Z,56.82
2022-11-29T18:21:46.401Z,56.49
2022-11-29T18:24:13.073Z,56.23
2022-11-29T18:26:39.907Z,56.38
2022-11-29T18:29:07.373Z,56.60
2022-11-29T18:31:36.681Z,56.68
2022-11-29T18:34:13.049Z,56.42
2022-11-29T18:36:47.894Z,56.48
2022-11-29T18:39:16.852Z,56.34
2022-11-29T18:41:46.724Z,56.29
2022-11-29T18:44:15.601Z,56.26
2022-11-29T18:46:43.866Z,56.35
2022-11-29T18:49:14.953Z,56.48
2022-11-29T18:51:45.957Z,56.17
2022-11-29T18:54:16.364Z,56.34
2022-11-29T18:56:43.914Z,56.40
2022-11-29T18:59:13.713Z,56.48
2022-11-29T19:01:42.583Z,56.32
2022-11-29T19:04:12.292Z,55.87
2022-11-29T19:06:40.234Z,56.47
2022-11-29T19:09:11.389Z,55.91
2022-11-29T19:11:38.413Z,55.93
2022-11-29T19:14:13.323Z,56.30
2022-11-29T19:16:46.100Z,56.26
2022-11-29T19:19:13.108Z,56.05
2022-11-29T19:21:40.584Z,55.83
2022-11-29T19:24:13.888Z,55.72
2022-11-29T19:26:44.297Z,56.27
2022-11-29T19:29:12.313Z,55.90
2022-11-29T19:31:39.506Z,56.19
2022-11-29T19:34:06.724Z,55.79
2022-11-29T19:36:34.094Z,56.11
2022-11-29T19:39:02.644Z,55.87
2022-11-29T19:41:34.251Z,55.92
2022-11-29T19:44:09.648Z,55.94
2022-11-29T19:46:38.994Z,56.00
2022-11-29T19:49:07.069Z,56.15
2022-11-29T19:51:34.855Z,55.78
2022-11-29T19:54:04.319Z,55.98
2022-11-29T19:56:31.607Z,55.86
2022-11-29T19:58:59.916Z,56.05
2022-11-29T20:01:37.869Z,55.94
2022-11-29T20:04:07.553Z,55.98
2022-11-29T20:06:34.676Z,55.95
2022-11-29T20:09:04.413Z,55.52
2022-11-29T20:11:31.092Z,55.71
2022-11-29T20:14:00.328Z,55.71
2022-11-29T20:16:27.883Z,55.67
2022-11-29T20:18:54.981Z,56.00
2022-11-29T20:21:28.196Z,55.98
2022-11-29T20:24:14.532Z,56.11
2022-11-29T20:26:43.697Z,55.52
2022-11-29T20:29:11.750Z,55.48
2022-11-29T20:31:43.075Z,55.52
2022-11-29T20:34:14.111Z,55.41
2022-11-29T20:37:18.544Z,55.67
2022-11-29T20:39:59.831Z,55.85
2022-11-29T20:42:39.266Z,55.71
2022-11-29T20:45:08.793Z,55.67
2022-11-29T20:47:47.747Z,55.84
2022-11-29T20:50:27.090Z,55.79
2022-11-29T20:53:12.314Z,55.62
2022-11-29T20:55:44.878Z,55.28
2022-11-29T20:58:14.688Z,55.35
2022-11-29T21:00:42.270Z,55.45
2022-11-29T21:03:14.259Z,55.73
2022-11-29T21:05:42.380Z,55.27
2022-11-29T21:08:09.052Z,55.61
2022-11-29T21:10:35.850Z,55.29
2022-11-29T21:13:02.735Z,55.74
2022-11-29T21:15:29.792Z,55.26
2022-11-29T21:17:57.137Z,55.40
2022-11-29T21:20:26.402Z,55.32
2022-11-29T21:23:02.654Z,55.64
2022-11-29T21:25:48.133Z,55.68
2022-11-29T21:28:16.597Z,55.33
2022-11-29T21:30:44.692Z,55.23
2022-11-29T21:33:12.221Z,55.64
2022-11-29T21:35:39.913Z,55.26
2022-11-29T21:38:11.333Z,55.56
2022-11-29T21:40:39.674Z,55.34
2022-11-29T21:43:06.339Z,55.32
2022-11-29T21:45:33.122Z,55.25
2022-11-29T21:48:03.040Z,55.00
2022-11-29T21:50:29.789Z,55.58
2022-11-29T21:52:56.449Z,55.51
2022-11-29T21:55:23.160Z,55.44
2022-11-29T21:57:49.817Z,55.52
2022-11-29T22:00:17.061Z,55.08
2022-11-29T22:02:43.888Z,55.14
2022-11-29T22:05:10.827Z,55.34
2022-11-29T22:07:37.590Z,55.44
2022-11-29T22:10:11.598Z,55.09
2022-11-29T22:12:45.909Z,55.15
